sensor_id;sensor_type;location;lat;lon;timestamp;pressure;altitude;pressure_sealevel;temperature;humidity
26719;BME280;14326;50.794;6.060;2023-04-08T00:00:37;100225.44;;;8.16;100.00
26719;BME280;14326;50.794;6.060;2023-04-08T00:03:35;100228.94;;;8.15;100.00
26719;BME280;14326;50.794;6.060;2023-04-08T00:06:15;100224.50;;;8.14;100.00
26719;BME280;14326;50.794;6.060;2023-04-08T00:08:42;100233.34;;;8.15;100.00
26719;BME280;14326;50.794;6.060;2023-04-08T00:14:45;100233.22;;;8.10;100.00
26719;BME280;14326;50.794;6.060;2023-04-08T00:17:39;100224.44;;;8.13;100.00
26719;BME280;14326;50.794;6.060;2023-04-08T00:20:30;100228.88;;;8.12;100.00
26719;BME280;14326;50.794;6.060;2023-04-08T00:23:13;100224.44;;;8.11;100.00
26719;BME280;14326;50.794;6.060;2023-04-08T00:26:15;100222.63;;;8.10;100.00
26719;BME280;14326;50.794;6.060;2023-04-08T00:28:52;100228.78;;;8.09;100.00
26719;BME280;14326;50.794;6.060;2023-04-08T00:31:40;100227.88;;;8.09;100.00
26719;BME280;14326;50.794;6.060;2023-04-08T00:34:31;100228.78;;;8.09;100.00
26719;BME280;14326;50.794;6.060;2023-04-08T00:37:40;100224.38;;;8.10;100.00
26719;BME280;14326;50.794;6.060;2023-04-08T00:40:28;100230.47;;;8.07;100.00
26719;BME280;14326;50.794;6.060;2023-04-08T00:43:01;100227.88;;;8.09;100.00
26719;BME280;14326;50.794;6.060;2023-04-08T00:45:28;100229.59;;;8.07;100.00
26719;BME280;14326;50.794;6.060;2023-04-08T00:48:08;100233.13;;;8.07;100.00
26719;BME280;14326;50.794;6.060;2023-04-08T00:50:49;100225.16;;;8.06;100.00
26719;BME280;14326;50.794;6.060;2023-04-08T00:53:37;100233.88;;;8.03;100.00
26719;BME280;14326;50.794;6.060;2023-04-08T00:57:25;100229.38;;;7.99;100.00
26719;BME280;14326;50.794;6.060;2023-04-08T00:59:49;100231.25;;;8.03;100.00
26719;BME280;14326;50.794;6.060;2023-04-08T01:02:39;100233.00;;;8.03;100.00
26719;BME280;14326;50.794;6.060;2023-04-08T01:05:22;100230.41;;;8.04;100.00
26719;BME280;14326;50.794;6.060;2023-04-08T01:08:07;100231.19;;;8.02;100.00
26719;BME280;14326;50.794;6.060;2023-04-08T01:10:57;100230.28;;;8.01;100.00
26719;BME280;14326;50.794;6.060;2023-04-08T01:13:36;100233.81;;;8.00;100.00
26719;BME280;14326;50.794;6.060;2023-04-08T01:16:15;100226.78;;;8.01;100.00
26719;BME280;14326;50.794;6.060;2023-04-08T01:19:03;100229.25;;;7.96;100.00
26719;BME280;14326;50.794;6.060;2023-04-08T01:21:48;100229.25;;;7.96;100.00
26719;BME280;14326;50.794;6.060;2023-04-08T01:24:28;100226.53;;;7.93;100.00
26719;BME280;14326;50.794;6.060;2023-04-08T01:27:47;100223.84;;;7.92;100.00
26719;BME280;14326;50.794;6.060;2023-04-08T01:30:33;100231.91;;;7.96;100.00
26719;BME280;14326;50.794;6.060;2023-04-08T01:33:17;100233.63;;;7.94;100.00
26719;BME280;14326;50.794;6.060;2023-04-08T01:36:04;100232.69;;;7.92;100.00
26719;BME280;14326;50.794;6.060;2023-04-08T01:41:49;100235.34;;;7.92;100.00
26719;BME280;14326;50.794;6.060;2023-04-08T01:44:58;100236.22;;;7.93;100.00
26719;BME280;14326;50.794;6.060;2023-04-08T01:47:47;100238.06;;;7.95;100.00
26719;BME280;14326;50.794;6.060;2023-04-08T01:51:00;100245.94;;;7.92;100.00
26719;BME280;14326;50.794;6.060;2023-04-08T01:57:10;100241.47;;;7.91;100.00
26719;BME280;14326;50.794;6.060;2023-04-08T02:00:07;100240.63;;;7.92;100.00
26719;BME280;14326;50.794;6.060;2023-04-08T02:02:55;100240.56;;;7.89;100.00
26719;BME280;14326;50.794;6.060;2023-04-08T02:05:31;100240.50;;;7.88;100.00
26719;BME280;14326;50.794;6.060;2023-04-08T02:08:06;100244.84;;;7.86;100.00
26719;BME280;14326;50.794;6.060;2023-04-08T02:10:32;100246.78;;;7.91;100.00
26719;BME280;14326;50.794;6.060;2023-04-08T02:13:10;100248.44;;;7.88;100.00
26719;BME280;14326;50.794;6.060;2023-04-08T02:19:13;100245.75;;;7.86;100.00
26719;BME280;14326;50.794;6.060;2023-04-08T02:22:12;100250.13;;;7.86;100.00
26719;BME280;14326;50.794;6.060;2023-04-08T02:24:53;100252.78;;;7.86;100.00
26719;BME280;14326;50.794;6.060;2023-04-08T02:27:35;100248.44;;;7.88;100.00
26719;BME280;14326;50.794;6.060;2023-04-08T02:30:23;100248.44;;;7.88;100.00
26719;BME280;14326;50.794;6.060;2023-04-08T02:33:08;100254.66;;;7.88;100.00
26719;BME280;14326;50.794;6.060;2023-04-08T02:36:05;100258.28;;;7.92;100.00
26719;BME280;14326;50.794;6.060;2023-04-08T02:42:18;100254.72;;;7.91;100.00
26719;BME280;14326;50.794;6.060;2023-04-08T02:44:54;100261.75;;;7.89;100.00
26719;BME280;14326;50.794;6.060;2023-04-08T02:47:51;100261.88;;;7.94;100.00
26719;BME280;14326;50.794;6.060;2023-04-08T02:50:20;100261.03;;;7.95;100.00
26719;BME280;14326;50.794;6.060;2023-04-08T02:52:51;100261.91;;;7.95;100.00
26719;BME280;14326;50.794;6.060;2023-04-08T02:55:27;100263.69;;;7.95;100.00
26719;BME280;14326;50.794;6.060;2023-04-08T02:58:01;100259.25;;;7.95;100.00
26719;BME280;14326;50.794;6.060;2023-04-08T03:00:46;100249.41;;;7.91;100.00
26719;BME280;14326;50.794;6.060;2023-04-08T03:03:23;100260.13;;;7.94;100.00
26719;BME280;14326;50.794;6.060;2023-04-08T03:05:53;100261.81;;;7.92;100.00
26719;BME280;14326;50.794;6.060;2023-04-08T03:08:36;100263.63;;;7.93;100.00
26719;BME280;14326;50.794;6.060;2023-04-08T03:11:05;100269.00;;;7.96;100.00
26719;BME280;14326;50.794;6.060;2023-04-08T03:13:32;100260.13;;;7.94;100.00
26719;BME280;14326;50.794;6.060;2023-04-08T03:16:23;100257.47;;;7.94;100.00
26719;BME280;14326;50.794;6.060;2023-04-08T03:19:02;100260.13;;;7.94;100.00
26719;BME280;14326;50.794;6.060;2023-04-08T03:21:52;100262.72;;;7.93;100.00
26719;BME280;14326;50.794;6.060;2023-04-08T03:24:37;100264.53;;;7.94;100.00
26719;BME280;14326;50.794;6.060;2023-04-08T03:27:17;100264.47;;;7.92;100.00
26719;BME280;14326;50.794;6.060;2023-04-08T03:30:05;100267.03;;;7.89;100.00
26719;BME280;14326;50.794;6.060;2023-04-08T03:32:45;100269.72;;;7.91;100.00
26719;BME280;14326;50.794;6.060;2023-04-08T03:35:40;100264.41;;;7.91;100.00
26719;BME280;14326;50.794;6.060;2023-04-08T03:38:36;100272.41;;;7.92;100.00
26719;BME280;14326;50.794;6.060;2023-04-08T03:44:23;100266.16;;;7.90;100.00
26719;BME280;14326;50.794;6.060;2023-04-08T03:46:50;100266.09;;;7.87;100.00
26719;BME280;14326;50.794;6.060;2023-04-08T03:49:16;100270.44;;;7.85;100.00
26719;BME280;14326;50.794;6.060;2023-04-08T03:51:43;100273.19;;;7.88;100.00
26719;BME280;14326;50.794;6.060;2023-04-08T03:54:22;100266.09;;;7.87;100.00
26719;BME280;14326;50.794;6.060;2023-04-08T03:57:16;100271.31;;;7.86;100.00
26719;BME280;14326;50.794;6.060;2023-04-08T03:59:58;100272.22;;;7.86;100.00
26719;BME280;14326;50.794;6.060;2023-04-08T04:03:02;100265.91;;;7.81;100.00
26719;BME280;14326;50.794;6.060;2023-04-08T04:05:49;100265.06;;;7.83;100.00
26719;BME280;14326;50.794;6.060;2023-04-08T04:08:22;100266.84;;;7.83;100.00
26719;BME280;14326;50.794;6.060;2023-04-08T04:10:48;100264.22;;;7.83;100.00
26719;BME280;14326;50.794;6.060;2023-04-08T04:13:36;100268.63;;;7.84;100.00
26719;BME280;14326;50.794;6.060;2023-04-08T04:16:17;100256.25;;;7.83;100.00
26719;BME280;14326;50.794;6.060;2023-04-08T04:18:57;100266.84;;;7.83;100.00
26719;BME280;14326;50.794;6.060;2023-04-08T04:21:26;100267.69;;;7.82;100.00
26719;BME280;14326;50.794;6.060;2023-04-08T04:23:52;100270.34;;;7.82;100.00
26719;BME280;14326;50.794;6.060;2023-04-08T04:26:24;100273.00;;;7.82;100.00
26719;BME280;14326;50.794;6.060;2023-04-08T04:29:21;100268.53;;;7.81;100.00
26719;BME280;14326;50.794;6.060;2023-04-08T04:32:07;100273.84;;;7.81;100.00
26719;BME280;14326;50.794;6.060;2023-04-08T04:34:33;100276.44;;;7.79;100.00
26719;BME280;14326;50.794;6.060;2023-04-08T04:37:06;100280.09;;;7.83;100.00
26719;BME280;14326;50.794;6.060;2023-04-08T04:39:46;100281.84;;;7.82;100.00
26719;BME280;14326;50.794;6.060;2023-04-08T04:42:24;100279.22;;;7.84;100.00
26719;BME280;14326;50.794;6.060;2023-04-08T04:44:58;100282.63;;;7.80;100.00
26719;BME280;14326;50.794;6.060;2023-04-08T04:47:25;100273.78;;;7.79;100.00
26719;BME280;14326;50.794;6.060;2023-04-08T04:49:52;100289.63;;;7.78;100.00
26719;BME280;14326;50.794;6.060;2023-04-08T04:52:18;100287.84;;;7.77;100.00
26719;BME280;14326;50.794;6.060;2023-04-08T04:54:45;100290.44;;;7.75;100.00
26719;BME280;14326;50.794;6.060;2023-04-08T04:57:11;100293.94;;;7.74;100.00
26719;BME280;14326;50.794;6.060;2023-04-08T04:59:51;100294.72;;;7.72;100.00
26719;BME280;14326;50.794;6.060;2023-04-08T05:06:09;100299.38;;;7.79;100.00
26719;BME280;14326;50.794;6.060;2023-04-08T05:08:53;100297.63;;;7.79;100.00
26719;BME280;14326;50.794;6.060;2023-04-08T05:11:24;100310.88;;;7.79;100.00
26719;BME280;14326;50.794;6.060;2023-04-08T05:13:55;100315.25;;;7.79;100.00
26719;BME280;14326;50.794;6.060;2023-04-08T05:16:42;100312.66;;;7.80;100.00
26719;BME280;14326;50.794;6.060;2023-04-08T05:19:40;100305.81;;;7.87;100.00
26719;BME280;14326;50.794;6.060;2023-04-08T05:22:33;100309.38;;;7.88;100.00
26719;BME280;14326;50.794;6.060;2023-04-08T05:25:15;100314.53;;;7.83;100.00
26719;BME280;14326;50.794;6.060;2023-04-08T05:27:50;100310.09;;;7.83;100.00
26719;BME280;14326;50.794;6.060;2023-04-08T05:30:25;100311.91;;;7.85;100.00
26719;BME280;14326;50.794;6.060;2023-04-08T05:32:52;100312.84;;;7.87;100.00
26719;BME280;14326;50.794;6.060;2023-04-08T05:35:47;100308.47;;;7.87;100.00
26719;BME280;14326;50.794;6.060;2023-04-08T05:38:51;100322.50;;;7.85;100.00
26719;BME280;14326;50.794;6.060;2023-04-08T05:41:38;100329.66;;;7.87;100.00
26719;BME280;14326;50.794;6.060;2023-04-08T05:44:30;100328.69;;;7.85;100.00
26719;BME280;14326;50.794;6.060;2023-04-08T05:47:12;100332.28;;;7.87;100.00
26719;BME280;14326;50.794;6.060;2023-04-08T05:49:51;100327.78;;;7.85;100.00
26719;BME280;14326;50.794;6.060;2023-04-08T05:52:32;100338.44;;;7.86;100.00
26719;BME280;14326;50.794;6.060;2023-04-08T05:55:00;100334.09;;;7.88;100.00
26719;BME280;14326;50.794;6.060;2023-04-08T05:57:45;100344.84;;;7.93;100.00
26719;BME280;14326;50.794;6.060;2023-04-08T06:00:36;100341.34;;;7.95;100.00
26719;BME280;14326;50.794;6.060;2023-04-08T06:03:08;100344.19;;;8.00;100.00
26719;BME280;14326;50.794;6.060;2023-04-08T06:05:46;100337.97;;;7.99;100.00
26719;BME280;14326;50.794;6.060;2023-04-08T06:08:26;100345.09;;;8.00;100.00
26719;BME280;14326;50.794;6.060;2023-04-08T06:10:54;100345.97;;;8.01;100.00
26719;BME280;14326;50.794;6.060;2023-04-08T06:13:45;100342.56;;;8.05;100.00
26719;BME280;14326;50.794;6.060;2023-04-08T06:16:37;100349.75;;;8.09;100.00
26719;BME280;14326;50.794;6.060;2023-04-08T06:19:12;100348.84;;;8.08;100.00
26719;BME280;14326;50.794;6.060;2023-04-08T06:21:39;100353.25;;;8.08;100.00
26719;BME280;14326;50.794;6.060;2023-04-08T06:24:06;100353.28;;;8.09;100.00
26719;BME280;14326;50.794;6.060;2023-04-08T06:26:34;100356.91;;;8.11;100.00
26719;BME280;14326;50.794;6.060;2023-04-08T06:29:03;100353.44;;;8.14;100.00
26719;BME280;14326;50.794;6.060;2023-04-08T06:31:39;100362.38;;;8.17;100.00
26719;BME280;14326;50.794;6.060;2023-04-08T06:34:14;100365.22;;;8.23;100.00
26719;BME280;14326;50.794;6.060;2023-04-08T06:37:00;100370.47;;;8.22;100.00
26719;BME280;14326;50.794;6.060;2023-04-08T06:39:32;100369.03;;;8.32;100.00
26719;BME280;14326;50.794;6.060;2023-04-08T06:42:00;100368.00;;;8.28;100.00
26719;BME280;14326;50.794;6.060;2023-04-08T06:44:30;100360.91;;;8.27;100.00
26719;BME280;14326;50.794;6.060;2023-04-08T06:47:10;100371.50;;;8.27;100.00
26719;BME280;14326;50.794;6.060;2023-04-08T06:49:55;100369.56;;;8.21;100.00
26719;BME280;14326;50.794;6.060;2023-04-08T06:52:48;100374.97;;;8.25;100.00
26719;BME280;14326;50.794;6.060;2023-04-08T06:55:21;100379.41;;;8.26;100.00
26719;BME280;14326;50.794;6.060;2023-04-08T06:57:48;100381.31;;;8.30;100.00
26719;BME280;14326;50.794;6.060;2023-04-08T07:00:16;100388.53;;;8.34;100.00
26719;BME280;14326;50.794;6.060;2023-04-08T07:03:12;100386.63;;;8.30;100.00
26719;BME280;14326;50.794;6.060;2023-04-08T07:06:07;100386.72;;;8.33;100.00
26719;BME280;14326;50.794;6.060;2023-04-08T07:08:40;100393.91;;;8.37;100.00
26719;BME280;14326;50.794;6.060;2023-04-08T07:11:07;100394.03;;;8.40;100.00
26719;BME280;14326;50.794;6.060;2023-04-08T07:13:35;100394.03;;;8.40;100.00
26719;BME280;14326;50.794;6.060;2023-04-08T07:16:02;100394.91;;;8.40;100.00
26719;BME280;14326;50.794;6.060;2023-04-08T07:18:40;100395.81;;;8.41;100.00
26719;BME280;14326;50.794;6.060;2023-04-08T07:21:26;100402.28;;;8.50;100.00
26719;BME280;14326;50.794;6.060;2023-04-08T07:24:14;100405.97;;;8.55;100.00
26719;BME280;14326;50.794;6.060;2023-04-08T07:26:50;100408.84;;;8.63;100.00
26719;BME280;14326;50.794;6.060;2023-04-08T07:32:20;100408.59;;;8.54;100.00
26719;BME280;14326;50.794;6.060;2023-04-08T07:35:02;100410.34;;;8.53;100.00
26719;BME280;14326;50.794;6.060;2023-04-08T07:37:30;100414.16;;;8.63;100.00
26719;BME280;14326;50.794;6.060;2023-04-08T07:40:06;100418.69;;;8.67;100.00
26719;BME280;14326;50.794;6.060;2023-04-08T07:42:40;100420.63;;;8.73;100.00
26719;BME280;14326;50.794;6.060;2023-04-08T07:45:09;100427.69;;;8.72;100.00
26719;BME280;14326;50.794;6.060;2023-04-08T07:47:36;100428.56;;;8.71;100.00
26719;BME280;14326;50.794;6.060;2023-04-08T07:50:03;100428.75;;;8.77;100.00
26719;BME280;14326;50.794;6.060;2023-04-08T07:52:30;100426.94;;;8.76;100.00
26719;BME280;14326;50.794;6.060;2023-04-08T07:54:56;100434.91;;;8.78;100.00
26719;BME280;14326;50.794;6.060;2023-04-08T07:57:24;100436.91;;;8.85;100.00
26719;BME280;14326;50.794;6.060;2023-04-08T07:59:51;100432.38;;;8.81;100.00
26719;BME280;14326;50.794;6.060;2023-04-08T08:02:19;100447.56;;;8.86;100.00
26719;BME280;14326;50.794;6.060;2023-04-08T08:04:45;100445.13;;;8.94;100.00
26719;BME280;14326;50.794;6.060;2023-04-08T08:07:12;100440.91;;;9.00;100.00
26719;BME280;14326;50.794;6.060;2023-04-08T08:09:50;100438.16;;;8.97;100.00
26719;BME280;14326;50.794;6.060;2023-04-08T08:12:33;100437.25;;;8.97;100.00
26719;BME280;14326;50.794;6.060;2023-04-08T08:15:11;100445.25;;;8.98;100.00
26719;BME280;14326;50.794;6.060;2023-04-08T08:20:45;100449.22;;;9.13;100.00
26719;BME280;14326;50.794;6.060;2023-04-08T08:23:31;100446.69;;;9.17;100.00
26719;BME280;14326;50.794;6.060;2023-04-08T08:26:01;100447.50;;;9.15;100.00
26719;BME280;14326;50.794;6.060;2023-04-08T08:28:45;100454.72;;;9.20;100.00
26719;BME280;14326;50.794;6.060;2023-04-08T08:31:14;100450.44;;;9.25;100.00
26719;BME280;14326;50.794;6.060;2023-04-08T08:33:51;100455.97;;;9.33;100.00
26719;BME280;14326;50.794;6.060;2023-04-08T08:39:02;100453.31;;;9.33;100.00
26719;BME280;14326;50.794;6.060;2023-04-08T08:41:35;100458.63;;;9.33;100.00
26719;BME280;14326;50.794;6.060;2023-04-08T08:44:15;100466.03;;;9.44;100.00
26719;BME280;14326;50.794;6.060;2023-04-08T08:46:56;100467.31;;;9.59;100.00
26719;BME280;14326;50.794;6.060;2023-04-08T08:49:27;100464.75;;;9.63;100.00
26719;BME280;14326;50.794;6.060;2023-04-08T08:52:30;100481.28;;;9.52;100.00
26719;BME280;14326;50.794;6.060;2023-04-08T08:55:18;100480.41;;;9.53;100.00
26719;BME280;14326;50.794;6.060;2023-04-08T08:58:06;100480.41;;;9.53;100.00
26719;BME280;14326;50.794;6.060;2023-04-08T09:00:40;100478.94;;;9.64;100.00
26719;BME280;14326;50.794;6.060;2023-04-08T09:03:15;100484.78;;;9.83;100.00
26719;BME280;14326;50.794;6.060;2023-04-08T09:05:51;100480.66;;;9.96;100.00
26719;BME280;14326;50.794;6.060;2023-04-08T09:08:44;100486.13;;;10.01;100.00
26719;BME280;14326;50.794;6.060;2023-04-08T09:11:27;100478.16;;;10.01;100.00
26719;BME280;14326;50.794;6.060;2023-04-08T09:14:15;100483.31;;;9.95;100.00
26719;BME280;14326;50.794;6.060;2023-04-08T09:16:52;100492.03;;;9.91;100.00
26719;BME280;14326;50.794;6.060;2023-04-08T09:19:25;100485.66;;;9.82;100.00
26719;BME280;14326;50.794;6.060;2023-04-08T09:22:13;100486.56;;;9.84;100.00
26719;BME280;14326;50.794;6.060;2023-04-08T09:25:43;100486.03;;;9.98;100.00
26719;BME280;14326;50.794;6.060;2023-04-08T09:28:18;100486.44;;;10.13;100.00
26719;BME280;14326;50.794;6.060;2023-04-08T09:30:53;100493.66;;;10.17;100.00
26719;BME280;14326;50.794;6.060;2023-04-08T09:33:39;100489.28;;;10.19;100.00
26719;BME280;14326;50.794;6.060;2023-04-08T09:36:16;100491.28;;;10.29;99.45
26719;BME280;14326;50.794;6.060;2023-04-08T09:39:01;100485.47;;;10.45;99.41
26719;BME280;14326;50.794;6.060;2023-04-08T09:41:39;100492.72;;;10.52;100.00
26719;BME280;14326;50.794;6.060;2023-04-08T09:47:13;100493.69;;;10.56;100.00
26719;BME280;14326;50.794;6.060;2023-04-08T09:50:21;100494.94;;;10.72;100.00
26719;BME280;14326;50.794;6.060;2023-04-08T09:53:39;100493.56;;;10.90;98.23
26719;BME280;14326;50.794;6.060;2023-04-08T09:56:26;100493.44;;;10.83;96.77
26719;BME280;14326;50.794;6.060;2023-04-08T09:59:13;100495.19;;;10.82;97.53
26719;BME280;14326;50.794;6.060;2023-04-08T10:02:06;100497.84;;;10.82;96.13
26719;BME280;14326;50.794;6.060;2023-04-08T10:04:52;100497.63;;;10.72;93.66
26719;BME280;14326;50.794;6.060;2023-04-08T10:10:15;100502.16;;;11.19;88.91
26719;BME280;14326;50.794;6.060;2023-04-08T10:13:00;100493.28;;;11.62;84.38
26719;BME280;14326;50.794;6.060;2023-04-08T10:15:38;100500.72;;;11.77;83.87
26719;BME280;14326;50.794;6.060;2023-04-08T10:21:43;100501.16;;;12.03;78.92
26719;BME280;14326;50.794;6.060;2023-04-08T10:24:38;100495.72;;;11.95;76.04
26719;BME280;14326;50.794;6.060;2023-04-08T10:27:38;100495.97;;;12.10;77.67
26719;BME280;14326;50.794;6.060;2023-04-08T10:33:40;100490.47;;;12.57;79.19
26719;BME280;14326;50.794;6.060;2023-04-08T10:36:14;100490.97;;;12.89;79.38
26719;BME280;14326;50.794;6.060;2023-04-08T10:38:45;100477.06;;;13.13;77.21
26719;BME280;14326;50.794;6.060;2023-04-08T10:41:22;100479.91;;;13.28;73.96
26719;BME280;14326;50.794;6.060;2023-04-08T10:43:57;100483.09;;;12.99;73.25
26719;BME280;14326;50.794;6.060;2023-04-08T10:46:53;100475.94;;;12.98;71.41
26719;BME280;14326;50.794;6.060;2023-04-08T10:49:32;100480.41;;;12.99;71.57
26719;BME280;14326;50.794;6.060;2023-04-08T10:52:34;100477.72;;;12.98;68.89
26719;BME280;14326;50.794;6.060;2023-04-08T10:55:19;100473.81;;;12.71;68.60
26719;BME280;14326;50.794;6.060;2023-04-08T10:57:50;100469.50;;;12.81;70.61
26719;BME280;14326;50.794;6.060;2023-04-08T11:00:31;100463.97;;;12.69;70.30
26719;BME280;14326;50.794;6.060;2023-04-08T11:02:59;100463.03;;;12.67;68.93
26719;BME280;14326;50.794;6.060;2023-04-08T11:05:37;100473.44;;;12.47;67.69
26719;BME280;14326;50.794;6.060;2023-04-08T11:08:08;100467.84;;;12.32;69.81
26719;BME280;14326;50.794;6.060;2023-04-08T11:10:37;100474.34;;;12.49;71.96
26719;BME280;14326;50.794;6.060;2023-04-08T11:13:10;100474.34;;;12.48;72.13
26719;BME280;14326;50.794;6.060;2023-04-08T11:15:59;100474.47;;;12.57;73.02
26719;BME280;14326;50.794;6.060;2023-04-08T11:18:45;100472.81;;;12.65;69.47
26719;BME280;14326;50.794;6.060;2023-04-08T11:21:23;100467.63;;;12.76;69.52
26719;BME280;14326;50.794;6.060;2023-04-08T11:23:53;100473.94;;;12.82;70.32
26719;BME280;14326;50.794;6.060;2023-04-08T11:26:29;100465.00;;;12.80;68.53
26719;BME280;14326;50.794;6.060;2023-04-08T11:29:01;100463.34;;;12.88;70.08
26719;BME280;14326;50.794;6.060;2023-04-08T11:31:51;100458.25;;;13.06;68.22
26719;BME280;14326;50.794;6.060;2023-04-08T11:34:44;100458.25;;;13.06;68.24
26719;BME280;14326;50.794;6.060;2023-04-08T11:37:37;100468.22;;;13.17;68.90
26719;BME280;14326;50.794;6.060;2023-04-08T11:40:32;100461.16;;;13.23;67.60
26719;BME280;14326;50.794;6.060;2023-04-08T11:43:09;100466.47;;;13.19;66.75
26719;BME280;14326;50.794;6.060;2023-04-08T11:45:47;100464.38;;;12.99;67.93
26719;BME280;14326;50.794;6.060;2023-04-08T11:48:17;100461.72;;;12.99;69.67
26719;BME280;14326;50.794;6.060;2023-04-08T11:50:44;100465.31;;;13.03;67.86
26719;BME280;14326;50.794;6.060;2023-04-08T11:53:18;100466.31;;;13.11;68.53
26719;BME280;14326;50.794;6.060;2023-04-08T11:55:50;100460.91;;;13.05;66.04
26719;BME280;14326;50.794;6.060;2023-04-08T11:58:40;100468.81;;;12.96;66.06
26719;BME280;14326;50.794;6.060;2023-04-08T12:01:14;100468.63;;;12.85;65.98
26719;BME280;14326;50.794;6.060;2023-04-08T12:04:09;100471.13;;;12.73;67.25
26719;BME280;14326;50.794;6.060;2023-04-08T12:06:54;100466.03;;;12.88;63.65
26719;BME280;14326;50.794;6.060;2023-04-08T12:09:45;100461.72;;;12.99;64.52
26719;BME280;14326;50.794;6.060;2023-04-08T12:12:11;100460.91;;;13.05;65.42
26719;BME280;14326;50.794;6.060;2023-04-08T12:14:38;100452.31;;;13.29;64.96
26719;BME280;14326;50.794;6.060;2023-04-08T12:17:05;100453.03;;;13.16;64.56
26719;BME280;14326;50.794;6.060;2023-04-08T12:19:31;100446.16;;;13.36;65.42
26719;BME280;14326;50.794;6.060;2023-04-08T12:24:56;100451.78;;;13.60;61.95
26719;BME280;14326;50.794;6.060;2023-04-08T12:30:19;100450.00;;;13.59;63.23
26719;BME280;14326;50.794;6.060;2023-04-08T12:33:03;100452.03;;;13.86;62.79
26719;BME280;14326;50.794;6.060;2023-04-08T12:35:36;100449.47;;;13.98;61.41
26719;BME280;14326;50.794;6.060;2023-04-08T12:38:03;100455.72;;;14.00;60.84
26719;BME280;14326;50.794;6.060;2023-04-08T12:40:42;100449.50;;;14.03;61.03
26719;BME280;14326;50.794;6.060;2023-04-08T12:43:19;100455.84;;;14.12;62.05
26719;BME280;14326;50.794;6.060;2023-04-08T12:46:03;100449.50;;;14.03;62.05
26719;BME280;14326;50.794;6.060;2023-04-08T12:48:49;100444.06;;;13.92;63.43
26719;BME280;14326;50.794;6.060;2023-04-08T12:51:18;100447.50;;;13.79;63.24
26719;BME280;14326;50.794;6.060;2023-04-08T12:54:03;100453.25;;;13.31;64.68
26719;BME280;14326;50.794;6.060;2023-04-08T12:56:34;100455.94;;;13.34;65.73
26719;BME280;14326;50.794;6.060;2023-04-08T12:59:22;100448.78;;;13.33;67.30
26719;BME280;14326;50.794;6.060;2023-04-08T13:02:20;100454.34;;;13.51;68.33
26719;BME280;14326;50.794;6.060;2023-04-08T13:05:05;100453.50;;;13.53;65.12
26719;BME280;14326;50.794;6.060;2023-04-08T13:07:51;100449.06;;;13.57;66.84
26719;BME280;14326;50.794;6.060;2023-04-08T13:10:26;100449.00;;;13.51;67.92
26719;BME280;14326;50.794;6.060;2023-04-08T13:12:57;100449.91;;;13.53;68.18
26719;BME280;14326;50.794;6.060;2023-04-08T13:15:40;100449.66;;;13.29;66.10
26719;BME280;14326;50.794;6.060;2023-04-08T13:18:34;100437.97;;;13.21;65.69
26719;BME280;14326;50.794;6.060;2023-04-08T13:21:08;100445.94;;;13.16;66.70
26719;BME280;14326;50.794;6.060;2023-04-08T13:23:43;100448.56;;;13.15;66.94
26719;BME280;14326;50.794;6.060;2023-04-08T13:26:26;100441.63;;;13.29;66.82
26719;BME280;14326;50.794;6.060;2023-04-08T13:29:20;100443.38;;;13.24;67.09
26719;BME280;14326;50.794;6.060;2023-04-08T13:31:53;100440.59;;;13.16;68.29
26719;BME280;14326;50.794;6.060;2023-04-08T13:34:27;100437.78;;;13.07;69.74
26719;BME280;14326;50.794;6.060;2023-04-08T13:36:56;100432.41;;;13.05;68.48
26719;BME280;14326;50.794;6.060;2023-04-08T13:39:28;100441.47;;;13.15;68.85
26719;BME280;14326;50.794;6.060;2023-04-08T13:44:43;100435.00;;;12.98;68.56
26719;BME280;14326;50.794;6.060;2023-04-08T13:47:13;100434.22;;;13.06;68.01
26719;BME280;14326;50.794;6.060;2023-04-08T13:49:42;100434.56;;;13.34;69.07
26719;BME280;14326;50.794;6.060;2023-04-08T13:52:27;100438.16;;;13.37;66.53
26719;BME280;14326;50.794;6.060;2023-04-08T13:55:19;100436.34;;;13.35;65.07
26719;BME280;14326;50.794;6.060;2023-04-08T13:57:47;100430.16;;;13.39;66.35
26719;BME280;14326;50.794;6.060;2023-04-08T14:00:17;100431.16;;;13.47;64.74
26719;BME280;14326;50.794;6.060;2023-04-08T14:02:45;100443.59;;;13.45;66.98
26719;BME280;14326;50.794;6.060;2023-04-08T14:05:15;100433.84;;;13.50;64.37
26719;BME280;14326;50.794;6.060;2023-04-08T14:07:41;100432.75;;;13.30;64.03
26719;BME280;14326;50.794;6.060;2023-04-08T14:10:08;100433.53;;;13.21;62.55
26719;BME280;14326;50.794;6.060;2023-04-08T14:12:38;100430.00;;;13.24;63.17
26719;BME280;14326;50.794;6.060;2023-04-08T14:15:11;100424.78;;;13.34;62.10
26719;BME280;14326;50.794;6.060;2023-04-08T14:17:59;100423.09;;;13.42;62.94
26719;BME280;14326;50.794;6.060;2023-04-08T14:20:38;100414.44;;;13.69;63.27
26719;BME280;14326;50.794;6.060;2023-04-08T14:23:05;100422.56;;;13.84;55.07
26719;BME280;14326;50.794;6.060;2023-04-08T14:25:37;100412.88;;;13.94;53.66
26719;BME280;14326;50.794;6.060;2023-04-08T14:28:25;100425.94;;;13.59;58.45
26719;BME280;14326;50.794;6.060;2023-04-08T14:30:56;100428.56;;;13.58;61.88
26719;BME280;14326;50.794;6.060;2023-04-08T14:33:24;100424.19;;;13.64;58.68
26719;BME280;14326;50.794;6.060;2023-04-08T14:35:51;100423.22;;;13.58;60.10
26719;BME280;14326;50.794;6.060;2023-04-08T14:38:30;100420.66;;;13.68;59.61
26719;BME280;14326;50.794;6.060;2023-04-08T14:40:58;100422.34;;;13.57;55.45
26719;BME280;14326;50.794;6.060;2023-04-08T14:43:40;100422.13;;;13.39;53.79
26719;BME280;14326;50.794;6.060;2023-04-08T14:46:07;100419.47;;;13.39;55.10
26719;BME280;14326;50.794;6.060;2023-04-08T14:48:35;100418.69;;;13.50;55.41